createdAt,value
2022-12-08T06:34:44.461Z,0.857143
2022-12-08T06:35:44.494Z,0.857143
2022-12-08T06:36:44.532Z,0.857143
2022-12-08T06:37:44.557Z,1.71429
2022-12-08T06:38:44.595Z,1.71429
2022-12-08T06:39:44.629Z,1.71429
2022-12-08T06:40:44.658Z,1.71429
2022-12-08T06:41:44.679Z,1.71429
2022-12-08T06:42:44.736Z,2.5
2022-12-08T06:43:44.744Z,3.35714
2022-12-08T06:44:44.765Z,4.21429
2022-12-08T06:45:44.859Z,4.21429
2022-12-08T06:46:44.830Z,5
2022-12-08T06:47:44.856Z,5
2022-12-08T06:48:44.900Z,4.21429
2022-12-08T06:49:44.925Z,6.71429
2022-12-08T06:50:44.951Z,7.5
2022-12-08T06:51:44.981Z,6.71429
2022-12-08T06:52:54.340Z,7.5
2022-12-08T06:53:45.044Z,7.5
2022-12-08T06:54:45.082Z,5.85714
2022-12-08T06:56:45.145Z,7.5
2022-12-08T06:57:45.215Z,7.5
2022-12-08T06:58:51.871Z,10
2022-12-08T06:59:45.241Z,10.8571
2022-12-08T07:00:45.330Z,10
2022-12-08T07:01:45.396Z,10.8571
2022-12-08T07:02:45.406Z,11.7143
2022-12-08T07:03:45.352Z,15.8571
2022-12-08T07:04:45.386Z,24.2143
2022-12-08T07:05:45.420Z,28.3571
2022-12-08T07:06:45.441Z,24.2143
2022-12-08T07:07:45.547Z,21.7143
2022-12-08T07:08:45.500Z,22.5
2022-12-08T07:09:45.528Z,21.7143
2022-12-08T07:10:45.570Z,28.3571
2022-12-08T07:11:45.592Z,40
2022-12-08T07:12:45.639Z,43.3571
2022-12-08T07:13:45.646Z,60
2022-12-08T07:14:45.677Z,72.5
2022-12-08T07:15:45.713Z,73.3571
2022-12-08T07:16:45.810Z,62.5
2022-12-08T07:17:45.780Z,69.2143
2022-12-08T07:18:45.796Z,80.8571
2022-12-08T07:19:45.835Z,97.5
2022-12-08T07:20:45.860Z,107.5
2022-12-08T07:21:45.943Z,103.357
2022-12-08T07:22:45.920Z,115
2022-12-08T07:23:45.955Z,114.214
2022-12-08T07:24:45.986Z,104.214
2022-12-08T07:25:46.035Z,102.5
2022-12-08T07:26:46.061Z,106.714
2022-12-08T07:27:46.082Z,130.857
2022-12-08T07:28:46.112Z,140.857
2022-12-08T07:29:46.142Z,137.5
2022-12-08T07:30:46.247Z,149.214
2022-12-08T07:31:46.200Z,164.214
2022-12-08T07:32:46.233Z,152.5
2022-12-08T07:33:46.263Z,161.714
2022-12-08T07:34:47.382Z,179.214
2022-12-08T07:35:49.287Z,204.214
2022-12-08T07:36:46.356Z,218.357
2022-12-08T07:37:46.373Z,215
2022-12-08T07:38:46.402Z,200.857
2022-12-08T07:39:46.437Z,177.5
2022-12-08T07:40:46.473Z,170.857
2022-12-08T07:41:46.522Z,150
2022-12-08T07:42:46.537Z,143.357
2022-12-08T07:43:46.564Z,151.714
2022-12-08T07:44:46.602Z,161.714
2022-12-08T07:45:46.708Z,170
2022-12-08T07:46:46.660Z,205.857
2022-12-08T07:47:46.686Z,166.714
2022-12-08T07:48:46.701Z,115
2022-12-08T07:49:46.738Z,93.3571
2022-12-08T07:50:46.776Z,80
2022-12-08T07:51:46.810Z,79.2143
2022-12-08T07:52:46.839Z,104.214
2022-12-08T07:53:53.177Z,120
2022-12-08T07:54:46.919Z,122.5
2022-12-08T07:55:46.945Z,124.214
2022-12-08T07:56:47.017Z,160.857
2022-12-08T07:57:47.014Z,125.857
2022-12-08T07:58:47.101Z,131.714
2022-12-08T07:59:47.078Z,157.5
2022-12-08T08:00:47.198Z,201.714
2022-12-08T08:01:56.146Z,187.5
2022-12-08T08:02:47.225Z,185
2022-12-08T08:03:47.196Z,160
2022-12-08T08:04:47.303Z,153.357
2022-12-08T08:05:47.264Z,171.714
2022-12-08T08:06:47.290Z,209.214
2022-12-08T08:07:47.346Z,163.357
2022-12-08T08:08:47.359Z,110
2022-12-08T08:09:47.380Z,121.714
2022-12-08T08:10:47.423Z,129.214
2022-12-08T08:12:07.244Z,148.357
2022-12-08T08:12:47.474Z,160
2022-12-08T08:13:47.501Z,184.214
2022-12-08T08:14:47.534Z,203.357
2022-12-08T08:15:47.743Z,190.857
2022-12-08T08:16:47.875Z,165
2022-12-08T08:17:47.634Z,181.714
2022-12-08T08:18:47.673Z,224.214
2022-12-08T08:19:47.696Z,259.214
2022-12-08T08:20:47.725Z,334.214
2022-12-08T08:21:47.763Z,537.5
2022-12-08T08:22:47.791Z,795.857
2022-12-08T08:23:47.824Z,1152.5
2022-12-08T08:24:47.854Z,1229.21
2022-12-08T08:25:47.890Z,1262.5
2022-12-08T08:26:47.913Z,1202.5
2022-12-08T08:27:47.954Z,1118.36
2022-12-08T08:28:47.998Z,990
2022-12-08T08:29:48.017Z,891.714
2022-12-08T08:30:48.120Z,837.5
2022-12-08T08:31:48.065Z,773.357
2022-12-08T08:32:48.091Z,790
2022-12-08T08:33:48.134Z,715.857
2022-12-08T08:34:48.166Z,594.214
2022-12-08T08:35:48.198Z,373.357
2022-12-08T08:36:48.294Z,335
2022-12-08T08:37:49.425Z,311.714
2022-12-08T08:38:48.301Z,261.714
2022-12-08T08:39:48.337Z,298.357
2022-12-08T08:40:48.369Z,333.357
2022-12-08T08:41:48.400Z,417.5
2022-12-08T08:42:48.429Z,434.214
2022-12-08T08:43:48.471Z,480
2022-12-08T08:44:48.497Z,603.357
2022-12-08T08:45:48.525Z,682.5
2022-12-08T08:46:48.641Z,718.357
2022-12-08T08:47:48.593Z,921.714
2022-12-08T08:48:48.620Z,1092.5
2022-12-08T08:49:48.646Z,1340
2022-12-08T08:50:48.688Z,1251.71
2022-12-08T08:51:48.715Z,1099.21
2022-12-08T08:52:48.761Z,1278.36
2022-12-08T08:53:48.818Z,1368.36
2022-12-08T08:54:48.822Z,1267.5
2022-12-08T08:55:48.855Z,1136.71
2022-12-08T08:56:48.894Z,1127.5
2022-12-08T08:57:48.926Z,974.214
2022-12-08T08:58:48.964Z,846.714
2022-12-08T08:59:48.978Z,810
2022-12-08T09:00:49.014Z,750.857
2022-12-08T09:01:49.127Z,902.5
2022-12-08T09:02:49.068Z,1028.36
2022-12-08T09:03:49.113Z,808.357
2022-12-08T09:04:49.350Z,663.357
2022-12-08T09:05:49.273Z,630.857
2022-12-08T09:06:49.198Z,760.857
2022-12-08T09:07:49.293Z,633.357
2022-12-08T09:08:49.261Z,598.357
2022-12-08T09:09:49.290Z,679.214
2022-12-08T09:10:49.309Z,712.5
2022-12-08T09:11:49.341Z,720.857
2022-12-08T09:12:49.366Z,857.5
2022-12-08T09:13:49.430Z,873.357
2022-12-08T09:14:49.437Z,832.5
2022-12-08T09:15:49.577Z,827.5
2022-12-08T09:16:49.546Z,835
2022-12-08T09:17:49.531Z,850
2022-12-08T09:18:49.659Z,879.214
2022-12-08T09:19:49.589Z,884.214
2022-12-08T09:20:49.621Z,942.5
2022-12-08T09:21:49.658Z,973.357
2022-12-08T09:22:49.697Z,964.214
2022-12-08T09:23:49.720Z,953.357
2022-12-08T09:24:49.773Z,963.357
2022-12-08T09:25:49.794Z,987.5
2022-12-08T09:26:49.817Z,1020.86
2022-12-08T09:27:49.848Z,1021.71
2022-12-08T09:28:49.876Z,1001.71
2022-12-08T09:29:49.906Z,993.357
2022-12-08T09:30:50.111Z,1000.86
2022-12-08T09:31:50.069Z,1040
2022-12-08T09:32:49.988Z,1073.36
2022-12-08T09:33:50.015Z,1128.36
2022-12-08T09:34:52.295Z,1173.36
2022-12-08T09:35:50.085Z,1213.36
2022-12-08T09:36:50.113Z,1254.21
2022-12-08T09:37:50.139Z,1268.36
2022-12-08T09:38:50.174Z,1276.71
2022-12-08T09:39:50.209Z,1290
2022-12-08T09:40:50.239Z,1285.86
2022-12-08T09:41:50.343Z,1280
2022-12-08T09:42:50.287Z,1292.5
2022-12-08T09:43:50.317Z,1303.36
2022-12-08T09:44:50.347Z,1309.21
2022-12-08T09:45:50.384Z,1330
2022-12-08T09:46:50.591Z,1138.36
2022-12-08T09:47:50.445Z,752.5
2022-12-08T09:48:50.503Z,450
2022-12-08T09:49:50.496Z,496.714
2022-12-08T09:50:50.541Z,505
2022-12-08T09:51:50.584Z,660.857
2022-12-08T09:52:50.597Z,736.714
2022-12-08T09:53:50.634Z,693.357
2022-12-08T09:54:50.663Z,770
2022-12-08T09:55:50.692Z,706.714
2022-12-08T09:56:50.725Z,696.714
2022-12-08T09:57:56.123Z,783.357
2022-12-08T09:58:50.787Z,879.214
2022-12-08T09:59:50.822Z,863.357
2022-12-08T10:00:50.854Z,1075
2022-12-08T10:01:51.046Z,1161.71
2022-12-08T10:02:50.908Z,1270.86
2022-12-08T10:03:50.950Z,1268.36
2022-12-08T10:04:51.027Z,1343.36
2022-12-08T10:05:51.020Z,1404.21
2022-12-08T10:06:51.037Z,1402.5
2022-12-08T10:07:51.178Z,1396.71
2022-12-08T10:08:51.095Z,1378.36
2022-12-08T10:09:51.143Z,1389.21
2022-12-08T10:10:51.158Z,1394.21
2022-12-08T10:11:51.192Z,1451.71
2022-12-08T10:12:51.221Z,1415
2022-12-08T10:13:51.255Z,1401.71
2022-12-08T10:14:51.291Z,1326.71
2022-12-08T10:15:51.379Z,1285.86
2022-12-08T10:16:51.416Z,1283.36
2022-12-08T10:17:51.382Z,1339.21
2022-12-08T10:18:51.408Z,1301.71
2022-12-08T10:19:51.442Z,1247.5
2022-12-08T10:20:51.465Z,1177.5
2022-12-08T10:21:51.503Z,1135.86
2022-12-08T10:22:51.535Z,1152.5
2022-12-08T10:23:51.567Z,1100
2022-12-08T10:24:51.598Z,1063.36
2022-12-08T10:25:51.620Z,1093.36
2022-12-08T10:26:51.677Z,1135.86
2022-12-08T10:27:51.698Z,1169.21
2022-12-08T10:28:51.718Z,1223.36
2022-12-08T10:29:51.755Z,1252.5
2022-12-08T10:30:51.774Z,1273.36
2022-12-08T10:31:51.906Z,1255
2022-12-08T10:32:51.843Z,1180.86
2022-12-08T10:33:51.873Z,1124.21
2022-12-08T10:34:56.181Z,1093.36
2022-12-08T10:35:51.928Z,1096.71
2022-12-08T10:36:51.959Z,1092.5
2022-12-08T10:37:51.977Z,1073.36
2022-12-08T10:38:52.007Z,1054.21
2022-12-08T10:39:52.031Z,1035.86
2022-12-08T10:40:52.059Z,997.5
2022-12-08T10:41:52.085Z,1025
2022-12-08T10:42:52.115Z,995
2022-12-08T10:43:52.141Z,1005.86
2022-12-08T10:44:52.175Z,906.714
2022-12-08T10:45:52.209Z,978.357
2022-12-08T10:46:52.321Z,883.357
2022-12-08T10:47:55.346Z,776.714
2022-12-08T10:48:52.296Z,753.357
2022-12-08T10:49:52.368Z,829.214
2022-12-08T10:50:52.346Z,689.214
2022-12-08T10:51:52.382Z,536.714
2022-12-08T10:52:52.401Z,502.5
2022-12-08T10:53:52.423Z,665
2022-12-08T10:54:52.470Z,568.357
2022-12-08T10:55:52.488Z,593.357
2022-12-08T10:56:52.521Z,525.857
2022-12-08T10:57:52.576Z,542.5
2022-12-08T10:58:52.582Z,544.214
2022-12-08T10:59:52.602Z,557.5
2022-12-08T11:00:52.818Z,418.357
2022-12-08T11:01:52.835Z,467.5
2022-12-08T11:02:52.841Z,402.5
2022-12-08T11:03:52.740Z,310.857
2022-12-08T11:04:52.778Z,285.857
2022-12-08T11:05:52.806Z,309.214
2022-12-08T11:06:52.848Z,336.714
2022-12-08T11:07:52.964Z,462.5
2022-12-08T11:08:52.906Z,491.714
2022-12-08T11:09:52.942Z,529.214
2022-12-08T11:10:52.971Z,450.857
2022-12-08T11:11:53.013Z,501.714
2022-12-08T11:12:53.037Z,415
2022-12-08T11:13:53.068Z,348.357
2022-12-08T11:14:53.127Z,343.357
2022-12-08T11:15:53.291Z,402.5
2022-12-08T11:16:53.310Z,420.857
2022-12-08T11:17:57.502Z,419.214
2022-12-08T11:18:53.228Z,343.357
2022-12-08T11:19:53.270Z,304.214
2022-12-08T11:20:53.374Z,329.214
2022-12-08T11:21:53.337Z,355
2022-12-08T11:22:53.355Z,385
2022-12-08T11:23:53.405Z,467.5
2022-12-08T11:24:53.437Z,470
2022-12-08T11:25:53.470Z,454.214
2022-12-08T11:26:53.516Z,421.714
2022-12-08T11:27:53.538Z,469.214
2022-12-08T11:28:53.555Z,513.357
2022-12-08T11:29:53.603Z,475
2022-12-08T11:30:53.633Z,491.714
2022-12-08T11:31:53.755Z,357.5
2022-12-08T11:32:53.693Z,345.857
2022-12-08T11:33:53.728Z,475.857
2022-12-08T11:34:53.758Z,434.214
2022-12-08T11:35:53.780Z,400
2022-12-08T11:36:53.840Z,520
2022-12-08T11:38:03.109Z,501.714
2022-12-08T11:38:53.874Z,670.857
2022-12-08T11:39:53.904Z,805
2022-12-08T11:40:53.939Z,712.5
2022-12-08T11:41:53.997Z,802.5
2022-12-08T11:42:54.005Z,760
2022-12-08T11:43:54.032Z,728.357
2022-12-08T11:44:54.063Z,634.214
2022-12-08T11:45:54.163Z,580.857
2022-12-08T11:46:54.125Z,619.214
2022-12-08T11:47:55.772Z,672.5
2022-12-08T11:48:54.190Z,543.357
2022-12-08T11:49:54.235Z,550
2022-12-08T11:50:54.253Z,561.714
2022-12-08T11:51:54.291Z,592.5
2022-12-08T11:52:54.312Z,569.214
2022-12-08T11:53:54.342Z,672.5
2022-12-08T11:54:54.375Z,706.714
2022-12-08T11:55:54.397Z,578.357
2022-12-08T11:56:54.437Z,607.5
2022-12-08T11:57:54.548Z,817.5
2022-12-08T11:58:54.484Z,895
2022-12-08T11:59:54.513Z,924.214
2022-12-08T12:00:54.565Z,998.357
2022-12-08T12:01:54.616Z,839.214
2022-12-08T12:02:54.727Z,1000.86
2022-12-08T12:03:54.651Z,1214.21
2022-12-08T12:04:54.684Z,812.5
2022-12-08T12:06:13.598Z,541.714
2022-12-08T12:06:55.537Z,693.357
2022-12-08T12:07:54.852Z,703.357
2022-12-08T12:08:54.798Z,670
2022-12-08T12:09:54.828Z,694.214
2022-12-08T12:10:54.866Z,948.357
2022-12-08T12:11:54.901Z,1176.71
2022-12-08T12:12:54.924Z,1125.86
2022-12-08T12:13:54.964Z,1310
2022-12-08T12:14:55.003Z,1376.71
2022-12-08T12:15:55.036Z,1389.21
2022-12-08T12:16:55.161Z,1335.86
2022-12-08T12:17:55.115Z,1183.36
2022-12-08T12:18:55.153Z,992.5
2022-12-08T12:19:55.183Z,981.714
2022-12-08T12:20:55.211Z,899.214
2022-12-08T12:21:55.248Z,853.357
2022-12-08T12:22:55.289Z,858.357
2022-12-08T12:23:55.319Z,757.5
2022-12-08T12:24:55.343Z,673.357
2022-12-08T12:25:55.381Z,535
2022-12-08T12:26:55.411Z,485.857
2022-12-08T12:27:57.523Z,556.714
2022-12-08T12:28:55.466Z,701.714
2022-12-08T12:29:56.101Z,700
2022-12-08T12:30:55.607Z,750
2022-12-08T12:31:55.563Z,702.5
2022-12-08T12:32:55.606Z,765.857
2022-12-08T12:33:55.631Z,944.214
2022-12-08T12:34:55.669Z,1005.86
2022-12-08T12:35:55.694Z,953.357
2022-12-08T12:36:55.729Z,907.5
2022-12-08T12:37:55.754Z,898.357
2022-12-08T12:38:55.789Z,887.5
2022-12-08T12:39:55.840Z,1085
2022-12-08T12:40:55.859Z,1127.5
2022-12-08T12:41:55.887Z,1191.71
2022-12-08T12:42:55.924Z,1175
2022-12-08T12:43:55.956Z,895.857
2022-12-08T12:44:55.981Z,715
2022-12-08T12:45:56.055Z,619.214
2022-12-08T12:46:56.050Z,530.857
2022-12-08T12:47:56.861Z,405
2022-12-08T12:48:56.109Z,475.857
2022-12-08T12:49:56.141Z,468.357
2022-12-08T12:50:56.166Z,403.357
2022-12-08T12:51:56.198Z,386.714
2022-12-08T12:52:56.235Z,475
2022-12-08T12:53:56.267Z,429.214
2022-12-08T12:54:56.304Z,363.357
2022-12-08T12:55:56.330Z,436.714
2022-12-08T12:56:56.357Z,346.714
2022-12-08T12:57:56.439Z,359.214
2022-12-08T12:58:56.417Z,356.714
2022-12-08T12:59:56.453Z,395
2022-12-08T13:00:56.523Z,368.357
2022-12-08T13:01:56.522Z,440
2022-12-08T13:02:56.608Z,546.714
2022-12-08T13:03:56.570Z,625
2022-12-08T13:04:56.601Z,646.714
2022-12-08T13:05:56.645Z,596.714
2022-12-08T13:06:56.682Z,561.714
2022-12-08T13:07:56.766Z,613.357
2022-12-08T13:08:56.737Z,832.5
2022-12-08T13:09:56.766Z,610.857
2022-12-08T13:10:56.788Z,724.214
2022-12-08T13:11:56.835Z,789.214
2022-12-08T13:12:56.877Z,727.5
2022-12-08T13:13:56.893Z,782.5
2022-12-08T13:14:56.938Z,636.714
2022-12-08T13:15:56.965Z,825.857
2022-12-08T13:16:57.048Z,1098.36
2022-12-08T13:17:57.031Z,1046.71
2022-12-08T13:18:57.062Z,977.5
2022-12-08T13:19:57.107Z,992.5
2022-12-08T13:20:57.136Z,975.857
2022-12-08T13:21:57.171Z,724.214
2022-12-08T13:22:57.194Z,515
2022-12-08T13:23:57.221Z,470
2022-12-08T13:24:57.247Z,496.714
2022-12-08T13:25:57.284Z,597.5
2022-12-08T13:26:57.312Z,569.214
2022-12-08T13:27:57.343Z,562.5
2022-12-08T13:28:57.380Z,535.857
2022-12-08T13:29:57.422Z,733.357
2022-12-08T13:30:57.532Z,827.5
2022-12-08T13:31:57.483Z,802.5
2022-12-08T13:33:17.770Z,750
2022-12-08T13:33:57.547Z,656.714
2022-12-08T13:34:57.583Z,598.357
2022-12-08T13:35:57.622Z,440.857
2022-12-08T13:36:57.639Z,365
2022-12-08T13:37:57.669Z,362.5
2022-12-08T13:38:57.703Z,337.5
2022-12-08T13:39:57.732Z,290
2022-12-08T13:40:57.765Z,351.714
2022-12-08T13:41:57.800Z,353.357
2022-12-08T13:42:57.857Z,345
2022-12-08T13:44:50.293Z,333.357
2022-12-08T13:45:24.140Z,346.714
2022-12-08T13:47:02.677Z,355
2022-12-08T13:47:31.480Z,338.357
2022-12-08T13:48:21.814Z,315.857
2022-12-08T13:52:37.004Z,294.214
2022-12-08T13:55:01.365Z,275.857
2022-12-08T13:56:59.698Z,266.714
2022-12-08T13:57:10.122Z,261.714
2022-12-08T13:57:58.392Z,240.857
2022-12-08T13:58:58.346Z,226.714
2022-12-08T13:59:58.373Z,222.5
2022-12-08T14:00:58.484Z,238.357
2022-12-08T14:01:58.515Z,243.357
2022-12-08T14:02:58.568Z,236.714
2022-12-08T14:04:30.875Z,243.357
2022-12-08T14:05:26.349Z,240
2022-12-08T14:06:12.220Z,240.857
2022-12-08T14:06:58.595Z,247.5
2022-12-08T14:07:58.668Z,243.357
2022-12-08T14:09:03.714Z,233.357
2022-12-08T14:09:58.695Z,225
2022-12-08T14:10:58.727Z,240
2022-12-08T14:11:58.755Z,245.857
2022-12-08T14:12:58.795Z,238.357
2022-12-08T14:13:58.827Z,230.857
2022-12-08T14:15:04.145Z,223.357
2022-12-08T14:15:58.943Z,217.5
2022-12-08T14:16:58.917Z,204.214
2022-12-08T14:17:58.949Z,201.714
2022-12-08T14:18:58.982Z,180
2022-12-08T14:19:59.017Z,174.214
2022-12-08T14:21:20.350Z,160
2022-12-08T14:21:59.081Z,158.357
2022-12-08T14:22:59.146Z,141.714
2022-12-08T14:23:59.145Z,155.857
2022-12-08T14:24:59.168Z,157.5
2022-12-08T14:25:59.198Z,157.5
2022-12-08T14:26:59.239Z,157.5
2022-12-08T14:27:59.270Z,146.714
2022-12-08T14:28:59.357Z,136.714
2022-12-08T14:29:59.330Z,129.214
2022-12-08T14:30:59.442Z,127.5
2022-12-08T14:31:59.414Z,125.857
2022-12-08T14:32:59.449Z,123.357
2022-12-08T14:33:59.477Z,120.857
2022-12-08T14:34:59.514Z,109.214
2022-12-08T14:35:59.542Z,101.714
2022-12-08T14:36:59.564Z,98.3571
2022-12-08T14:37:59.627Z,94.2143
2022-12-08T14:38:59.639Z,88.3571
2022-12-08T14:39:59.665Z,84.2143
2022-12-08T14:40:59.697Z,80
2022-12-08T14:41:59.719Z,77.5
2022-12-08T14:42:59.754Z,74.2143
2022-12-08T14:43:59.784Z,70.8571
2022-12-08T14:44:59.814Z,69.2143
2022-12-08T14:45:59.919Z,65
2022-12-08T14:47:04.003Z,61.7143
2022-12-08T14:47:59.925Z,59.2143
2022-12-08T14:48:59.960Z,55.8571
2022-12-08T14:49:59.997Z,46.7143
2022-12-08T14:51:00.043Z,46.7143
2022-12-08T14:52:00.112Z,46.7143
2022-12-08T14:53:00.102Z,44.2143
2022-12-08T14:54:00.223Z,40.8571
2022-12-08T14:55:00.169Z,40
2022-12-08T14:56:00.202Z,39.2143
2022-12-08T14:57:00.233Z,37.5
2022-12-08T14:58:00.262Z,35.8571
2022-12-08T14:59:00.295Z,32.5
2022-12-08T15:00:00.332Z,29.2143
2022-12-08T15:01:00.370Z,25.8571
2022-12-08T15:02:00.448Z,23.3571
2022-12-08T15:03:00.421Z,21.7143
2022-12-08T15:04:00.455Z,19.2143
2022-12-08T15:05:00.598Z,17.5
2022-12-08T15:06:00.513Z,15.8571
2022-12-08T15:07:00.555Z,14.2143
2022-12-08T15:08:00.614Z,12.5
2022-12-08T15:09:00.613Z,10.8571
2022-12-08T15:10:00.647Z,10
2022-12-08T15:11:00.688Z,9.21429
2022-12-08T15:12:00.720Z,7.5
2022-12-08T15:13:00.759Z,6.71429
2022-12-08T15:14:00.789Z,5
2022-12-08T15:15:00.812Z,4.21429
2022-12-08T15:16:00.978Z,3.35714
2022-12-08T15:17:00.893Z,3.35714
2022-12-08T15:18:00.934Z,2.5
2022-12-08T15:19:00.972Z,1.71429
2022-12-08T15:20:01.014Z,1.71429
2022-12-08T15:21:01.030Z,0.857143
2022-12-08T15:22:01.065Z,0.857143
